Time;durP1;ratioP1;P1;durP2;ratioP2;P2;SDS_P1;SDS_P2;PMS_P1;PMS_P2;Temp;Humidity;BMP_temperature;BMP_pressure;BME280_temperature;BME280_humidity;BME280_pressure;Samples;Min_cycle;Max_cycle;Signal;HPM_P1;HPM_P2
2023/12/19 00:01:22;;;;;;;;;;;-0.10;99.90;;;;;;5064025;28;19920;-68
2023/12/19 00:03:49;;;;;;;;;;;-0.10;99.90;;;;;;5064372;28;19920;-68
2023/12/19 00:06:15;;;;;;;;;;;-0.20;99.90;;;;;;5064649;28;20207;-68
2023/12/19 00:08:43;;;;;;;;;;;-0.20;99.90;;;;;;5064456;28;19921;-68
2023/12/19 00:11:10;;;;;;;;;;;-0.20;99.90;;;;;;5064649;28;19948;-68
2023/12/19 00:13:36;;;;;;;;;;;0.00;99.90;;;;;;5059421;28;19925;-68
2023/12/19 00:16:03;;;;;;;;;;;0.10;99.90;;;;;;5060712;28;19927;-68
2023/12/19 00:18:30;;;;;;;;;;;0.20;99.90;;;;;;5063965;28;19921;-68
2023/12/19 00:20:57;;;;;;;;;;;0.30;99.90;;;;;;5064275;28;19925;-68
2023/12/19 00:23:23;;;;;;;;;;;0.30;99.90;;;;;;5063995;28;19988;-68
2023/12/19 00:25:51;;;;;;;;;;;0.30;99.90;;;;;;5064229;28;19920;-68
2023/12/19 00:28:18;;;;;;;;;;;0.20;99.90;;;;;;5064056;28;19952;-68
2023/12/19 00:30:44;;;;;;;;;;;0.20;99.90;;;;;;5062603;28;20167;-68
2023/12/19 00:33:11;;;;;;;;;;;0.10;99.90;;;;;;5063824;28;19987;-68
2023/12/19 00:35:37;;;;;;;;;;;0.10;99.90;;;;;;5064265;28;19988;-67
2023/12/19 00:38:05;;;;;;;;;;;0.00;99.90;;;;;;5063770;28;19920;-68
2023/12/19 00:40:31;;;;;;;;;;;0.00;99.90;;;;;;5055660;28;20312;-68
2023/12/19 00:42:59;;;;;;;;;;;0.10;99.90;;;;;;5063601;28;19948;-68
2023/12/19 00:45:26;;;;;;;;;;;0.10;99.90;;;;;;5064125;28;20003;-68
2023/12/19 00:47:53;;;;;;;;;;;0.10;99.90;;;;;;5063815;28;20095;-68
2023/12/19 00:50:19;;;;;;;;;;;0.10;99.90;;;;;;5063874;28;19921;-68
2023/12/19 00:52:46;;;;;;;;;;;0.10;99.90;;;;;;5063425;28;19991;-69
2023/12/19 00:55:12;;;;;;;;;;;0.10;99.90;;;;;;5063732;28;19952;-68
2023/12/19 00:57:39;;;;;;;;;;;0.30;99.90;;;;;;5063798;28;19921;-68
2023/12/19 01:00:08;;;;;;;;;;;0.50;99.90;;;;;;5063429;28;20207;-68
2023/12/19 01:02:35;;;;;;;;;;;0.60;99.90;;;;;;5063037;28;19928;-68
2023/12/19 01:05:01;;;;;;;;;;;0.70;99.90;;;;;;5056238;28;19984;-68
2023/12/19 01:07:28;;;;;;;;;;;0.80;99.90;;;;;;5063352;28;19925;-68
2023/12/19 01:09:55;;;;;;;;;;;0.90;99.90;;;;;;5063587;28;19920;-68
2023/12/19 01:12:21;;;;;;;;;;;1.00;99.90;;;;;;5061685;28;19984;-68
2023/12/19 01:14:48;;;;;;;;;;;1.00;99.90;;;;;;5063248;28;19920;-68
2023/12/19 01:17:16;;;;;;;;;;;1.00;99.90;;;;;;5063378;28;19948;-67
2023/12/19 01:19:42;;;;;;;;;;;1.10;99.90;;;;;;5063413;28;19988;-68
2023/12/19 01:22:09;;;;;;;;;;;1.20;99.90;;;;;;5062821;28;19962;-68
2023/12/19 01:24:36;;;;;;;;;;;1.20;99.90;;;;;;5063075;28;19983;-68
2023/12/19 01:27:02;;;;;;;;;;;1.20;99.90;;;;;;5063358;28;19920;-68
2023/12/19 01:29:29;;;;;;;;;;;1.20;99.90;;;;;;5061924;28;19924;-68
2023/12/19 01:31:55;;;;;;;;;;;1.10;99.90;;;;;;5063142;28;19948;-68
2023/12/19 01:34:23;;;;;;;;;;;1.00;99.90;;;;;;5062530;28;19988;-68
2023/12/19 01:36:50;;;;;;;;;;;0.90;99.90;;;;;;5062886;28;19956;-68
2023/12/19 01:39:17;;;;;;;;;;;0.80;99.90;;;;;;5063098;28;19921;-68
2023/12/19 01:41:43;;;;;;;;;;;0.70;99.90;;;;;;5063084;28;20158;-68
2023/12/19 01:44:17;;;;;;;;;;;0.70;99.90;;;;;;5062693;28;19988;-68
2023/12/19 01:46:44;;;;;;;;;;;0.60;99.90;;;;;;5063190;28;19959;-67
2023/12/19 01:49:10;;;;;;;;;;;0.40;99.90;;;;;;5063026;28;19920;-68
2023/12/19 01:51:38;;;;;;;;;;;0.30;99.90;;;;;;5063244;28;19952;-69
2023/12/19 01:54:06;;;;;;;;;;;0.20;99.90;;;;;;5062491;28;19920;-68
2023/12/19 01:56:33;;;;;;;;;;;0.20;99.90;;;;;;5055197;28;19988;-68
2023/12/19 01:59:00;;;;;;;;;;;0.20;99.90;;;;;;5062645;28;19921;-68
2023/12/19 02:01:28;;;;;;;;;;;0.20;99.90;;;;;;5062592;28;19999;-68
2023/12/19 02:03:54;;;;;;;;;;;0.30;99.90;;;;;;5062402;28;19991;-68
2023/12/19 02:06:22;;;;;;;;;;;0.30;99.90;;;;;;5062886;28;19948;-68
2023/12/19 02:08:51;;;;;;;;;;;0.30;99.90;;;;;;5062826;28;19929;-68
2023/12/19 02:11:17;;;;;;;;;;;0.30;99.90;;;;;;5062773;28;19928;-68
2023/12/19 02:13:44;;;;;;;;;;;0.30;99.90;;;;;;5062269;28;19951;-68
2023/12/19 02:16:11;;;;;;;;;;;0.30;99.90;;;;;;5062686;28;19928;-68
2023/12/19 02:18:38;;;;;;;;;;;0.30;99.90;;;;;;5062705;28;19992;-68
2023/12/19 02:21:05;;;;;;;;;;;0.20;99.90;;;;;;5062472;28;19921;-68
2023/12/19 02:23:33;;;;;;;;;;;0.20;99.90;;;;;;5054753;28;19984;-68
2023/12/19 02:25:59;;;;;;;;;;;0.20;99.90;;;;;;5066876;28;20166;-68
2023/12/19 02:28:26;;;;;;;;;;;0.20;99.90;;;;;;5066495;28;19928;-68
2023/12/19 02:30:53;;;;;;;;;;;0.30;99.90;;;;;;5066214;28;19952;-68
2023/12/19 02:33:19;;;;;;;;;;;0.30;99.90;;;;;;5066113;28;19928;-68
2023/12/19 02:35:46;;;;;;;;;;;0.30;99.90;;;;;;5066642;28;19947;-68
2023/12/19 02:38:12;;;;;;;;;;;0.30;99.90;;;;;;5066403;28;19992;-68
2023/12/19 02:40:40;;;;;;;;;;;0.30;99.90;;;;;;5066511;28;19925;-68
2023/12/19 02:43:07;;;;;;;;;;;0.30;99.90;;;;;;5065668;28;19959;-68
2023/12/19 02:45:34;;;;;;;;;;;0.30;99.90;;;;;;5066389;28;19952;-68
2023/12/19 02:48:00;;;;;;;;;;;0.40;99.90;;;;;;5065916;28;19936;-68
2023/12/19 02:50:27;;;;;;;;;;;0.40;99.90;;;;;;5065984;28;20222;-68
2023/12/19 02:52:54;;;;;;;;;;;0.50;99.90;;;;;;5065781;28;19948;-68
2023/12/19 02:55:20;;;;;;;;;;;0.50;99.90;;;;;;5065940;28;19952;-68
2023/12/19 02:57:48;;;;;;;;;;;0.50;99.90;;;;;;5065802;28;19935;-68
2023/12/19 03:00:15;;;;;;;;;;;0.40;99.90;;;;;;5065727;28;20282;-69
2023/12/19 03:02:43;;;;;;;;;;;0.40;99.90;;;;;;5065506;28;19920;-68
2023/12/19 03:05:10;;;;;;;;;;;0.40;99.90;;;;;;5066001;28;19992;-68
2023/12/19 03:07:36;;;;;;;;;;;0.40;99.90;;;;;;5065770;28;19943;-68
2023/12/19 03:10:07;;;;;;;;;;;0.40;99.90;;;;;;5065529;28;19921;-68
2023/12/19 03:12:34;;;;;;;;;;;0.40;99.90;;;;;;5057679;28;19921;-68
2023/12/19 03:15:02;;;;;;;;;;;0.30;99.90;;;;;;5065532;28;19992;-68
2023/12/19 03:17:29;;;;;;;;;;;0.40;99.90;;;;;;5065666;28;19928;-68
2023/12/19 03:19:55;;;;;;;;;;;0.40;99.90;;;;;;5065532;28;20123;-70
2023/12/19 03:22:22;;;;;;;;;;;0.40;99.90;;;;;;5064762;28;20214;-68
2023/12/19 03:24:48;;;;;;;;;;;0.40;99.90;;;;;;5065660;28;19921;-68
2023/12/19 03:27:15;;;;;;;;;;;0.40;99.90;;;;;;5065266;28;20270;-68
2023/12/19 03:29:42;;;;;;;;;;;0.50;99.90;;;;;;5065031;28;19952;-68
2023/12/19 03:32:10;;;;;;;;;;;0.60;99.90;;;;;;5064821;28;20008;-68
2023/12/19 03:34:37;;;;;;;;;;;0.70;99.90;;;;;;5064994;28;19987;-68
2023/12/19 03:37:04;;;;;;;;;;;0.70;99.90;;;;;;5064334;28;19954;-69
2023/12/19 03:39:30;;;;;;;;;;;0.80;99.90;;;;;;5065311;28;19952;-69
2023/12/19 03:41:57;;;;;;;;;;;0.80;99.90;;;;;;5065235;28;20178;-69
2023/12/19 03:44:23;;;;;;;;;;;0.90;99.90;;;;;;5064509;28;19996;-68
2023/12/19 03:46:50;;;;;;;;;;;0.90;99.90;;;;;;5064826;28;20218;-68
2023/12/19 03:49:18;;;;;;;;;;;0.90;99.90;;;;;;5065097;28;19921;-69
2023/12/19 03:51:45;;;;;;;;;;;1.00;99.90;;;;;;5065180;28;19948;-68
2023/12/19 03:54:11;;;;;;;;;;;1.00;99.90;;;;;;5064546;28;19928;-69
2023/12/19 03:56:38;;;;;;;;;;;1.00;99.90;;;;;;5064764;28;20234;-68
2023/12/19 03:59:05;;;;;;;;;;;1.00;99.90;;;;;;5064553;28;19921;-68
2023/12/19 04:01:32;;;;;;;;;;;0.90;99.90;;;;;;5055419;28;19921;-68
2023/12/19 04:03:58;;;;;;;;;;;0.90;99.90;;;;;;5064430;28;19948;-68
2023/12/19 04:06:26;;;;;;;;;;;0.90;99.90;;;;;;5064705;28;19928;-68
2023/12/19 04:08:53;;;;;;;;;;;0.80;99.90;;;;;;5058172;28;19980;-68
2023/12/19 04:11:20;;;;;;;;;;;0.80;99.90;;;;;;5063027;28;19927;-69
2023/12/19 04:13:45;;;;;;;;;;;0.80;99.90;;;;;;5064057;28;19959;-68
2023/12/19 04:16:12;;;;;;;;;;;0.80;99.90;;;;;;5064803;28;19916;-68
2023/12/19 04:18:38;;;;;;;;;;;0.80;99.90;;;;;;5064365;28;19952;-68
2023/12/19 04:21:07;;;;;;;;;;;0.80;99.90;;;;;;5064228;28;19983;-68
2023/12/19 04:23:34;;;;;;;;;;;0.90;99.90;;;;;;5056318;28;19952;-68
2023/12/19 04:26:01;;;;;;;;;;;0.80;99.90;;;;;;5064718;28;19952;-68
2023/12/19 04:28:28;;;;;;;;;;;0.90;99.90;;;;;;5064294;28;19921;-68
2023/12/19 04:30:54;;;;;;;;;;;0.90;99.90;;;;;;5064136;28;19988;-68
2023/12/19 04:33:21;;;;;;;;;;;0.80;99.90;;;;;;5063868;28;19988;-68
2023/12/19 04:35:47;;;;;;;;;;;0.80;99.90;;;;;;5064195;28;20226;-68
2023/12/19 04:38:14;;;;;;;;;;;0.80;99.90;;;;;;5054659;28;19927;-68
2023/12/19 04:40:42;;;;;;;;;;;0.90;99.90;;;;;;5047123;28;19969;-68
2023/12/19 04:43:09;;;;;;;;;;;0.90;99.90;;;;;;5046748;28;19928;-67
2023/12/19 04:45:35;;;;;;;;;;;0.80;99.90;;;;;;5050924;28;19943;-68
2023/12/19 04:48:02;;;;;;;;;;;0.80;99.90;;;;;;5048864;28;20222;-68
2023/12/19 04:50:29;;;;;;;;;;;0.90;99.90;;;;;;5048184;28;20488;-68
2023/12/19 04:52:55;;;;;;;;;;;0.80;99.90;;;;;;5048267;28;19921;-67
2023/12/19 04:55:22;;;;;;;;;;;0.80;99.90;;;;;;5047566;28;20158;-68
2023/12/19 04:57:50;;;;;;;;;;;0.70;99.90;;;;;;5048329;28;19980;-68
2023/12/19 05:00:17;;;;;;;;;;;0.70;99.90;;;;;;5047180;28;19955;-68
2023/12/19 05:02:43;;;;;;;;;;;0.70;99.90;;;;;;5056003;28;20115;-68
2023/12/19 05:05:10;;;;;;;;;;;0.70;99.90;;;;;;5063653;28;19920;-68
2023/12/19 05:07:36;;;;;;;;;;;0.60;99.90;;;;;;5062712;28;19988;-68
2023/12/19 05:10:03;;;;;;;;;;;0.50;99.90;;;;;;5055944;28;19921;-68
2023/12/19 05:12:30;;;;;;;;;;;0.40;99.90;;;;;;5060398;28;19943;-68
2023/12/19 05:14:58;;;;;;;;;;;0.40;99.90;;;;;;5058514;28;19979;-68
2023/12/19 05:17:24;;;;;;;;;;;0.30;99.90;;;;;;5055111;28;19984;-68
2023/12/19 05:19:51;;;;;;;;;;;0.30;99.90;;;;;;5053213;28;19956;-68
2023/12/19 05:22:17;;;;;;;;;;;0.20;99.90;;;;;;5049040;28;19933;-68
2023/12/19 05:24:44;;;;;;;;;;;0.30;99.90;;;;;;5043226;28;19921;-69
2023/12/19 05:27:11;;;;;;;;;;;0.40;99.90;;;;;;5051976;28;19920;-68
2023/12/19 05:29:37;;;;;;;;;;;0.40;99.90;;;;;;5047199;28;20261;-68
2023/12/19 05:32:06;;;;;;;;;;;0.50;99.90;;;;;;5048097;28;19921;-69
2023/12/19 05:34:32;;;;;;;;;;;0.50;99.90;;;;;;5048822;28;19992;-68
2023/12/19 05:36:59;;;;;;;;;;;0.40;99.90;;;;;;5048236;28;19959;-68
2023/12/19 05:39:26;;;;;;;;;;;0.20;99.90;;;;;;5048512;28;20185;-69
2023/12/19 05:41:56;;;;;;;;;;;0.10;99.90;;;;;;5054251;28;19986;-68
2023/12/19 05:44:23;;;;;;;;;;;0.10;99.90;;;;;;5055112;28;20159;-68
2023/12/19 05:46:50;;;;;;;;;;;0.30;99.90;;;;;;5047255;28;19980;-68
2023/12/19 05:49:18;;;;;;;;;;;0.50;99.90;;;;;;5051892;28;20189;-67
2023/12/19 05:51:44;;;;;;;;;;;0.50;99.90;;;;;;5046043;28;19980;-68
2023/12/19 05:54:11;;;;;;;;;;;0.60;99.90;;;;;;5049450;28;19960;-68
2023/12/19 05:56:38;;;;;;;;;;;0.70;99.90;;;;;;5060697;28;19975;-68
2023/12/19 05:59:04;;;;;;;;;;;0.70;99.90;;;;;;5063716;28;19970;-68
2023/12/19 06:01:31;;;;;;;;;;;0.80;99.90;;;;;;5065061;28;20000;-68
2023/12/19 06:03:58;;;;;;;;;;;0.80;99.90;;;;;;5065683;28;20250;-68
2023/12/19 06:06:26;;;;;;;;;;;0.70;99.90;;;;;;5066151;28;19983;-68
2023/12/19 06:08:52;;;;;;;;;;;0.70;99.90;;;;;;5063680;28;20117;-68
2023/12/19 06:11:26;;;;;;;;;;;0.60;99.90;;;;;;5065197;28;19927;-68
2023/12/19 06:13:53;;;;;;;;;;;0.50;99.90;;;;;;5064480;28;19941;-67
2023/12/19 06:16:20;;;;;;;;;;;0.40;99.90;;;;;;5065947;28;20232;-68
2023/12/19 06:18:46;;;;;;;;;;;0.20;99.90;;;;;;5063047;28;19921;-69
2023/12/19 06:21:13;;;;;;;;;;;0.10;99.90;;;;;;5056124;28;19929;-68
2023/12/19 06:23:41;;;;;;;;;;;0.10;99.90;;;;;;5059920;28;19920;-68
2023/12/19 06:26:08;;;;;;;;;;;0.10;99.90;;;;;;5066624;28;19927;-69
2023/12/19 06:28:34;;;;;;;;;;;0.10;99.90;;;;;;5059021;28;19921;-69
2023/12/19 06:31:01;;;;;;;;;;;0.10;99.90;;;;;;5063396;28;20354;-75
2023/12/19 06:33:28;;;;;;;;;;;0.10;99.90;;;;;;5064372;28;19921;-69
2023/12/19 06:35:54;;;;;;;;;;;0.10;99.90;;;;;;5065884;28;19921;-69
2023/12/19 06:38:21;;;;;;;;;;;0.10;99.90;;;;;;5053172;28;19988;-69
2023/12/19 06:40:49;;;;;;;;;;;0.10;99.90;;;;;;5050766;28;20005;-67
2023/12/19 06:43:15;;;;;;;;;;;0.10;99.90;;;;;;5055409;28;19995;-68
2023/12/19 06:45:42;;;;;;;;;;;0.20;99.90;;;;;;5050862;28;19927;-69
2023/12/19 06:48:09;;;;;;;;;;;0.10;99.90;;;;;;5058355;28;19952;-69
2023/12/19 06:50:35;;;;;;;;;;;0.20;99.90;;;;;;5061218;28;20187;-69
2023/12/19 06:53:02;;;;;;;;;;;0.20;99.90;;;;;;5063599;28;19920;-68
2023/12/19 06:55:30;;;;;;;;;;;0.20;99.90;;;;;;5066466;28;19924;-69
2023/12/19 06:57:58;;;;;;;;;;;0.20;99.90;;;;;;5066802;28;19952;-68
2023/12/19 07:00:25;;;;;;;;;;;0.30;99.90;;;;;;5066867;28;20211;-69
2023/12/19 07:02:52;;;;;;;;;;;0.30;99.90;;;;;;5059437;28;19944;-69
2023/12/19 07:05:18;;;;;;;;;;;0.40;99.90;;;;;;5056095;28;19920;-69
2023/12/19 07:07:47;;;;;;;;;;;0.40;99.90;;;;;;5065641;28;19921;-69
2023/12/19 07:10:14;;;;;;;;;;;0.40;99.90;;;;;;5065700;28;20210;-69
2023/12/19 07:12:41;;;;;;;;;;;0.50;99.90;;;;;;5065324;28;19982;-69
2023/12/19 07:15:09;;;;;;;;;;;0.50;99.90;;;;;;5065283;28;19921;-71
2023/12/19 07:17:37;;;;;;;;;;;0.60;99.90;;;;;;5065424;28;19920;-69
2023/12/19 07:20:04;;;;;;;;;;;0.70;99.90;;;;;;5065756;28;19959;-69
2023/12/19 07:22:31;;;;;;;;;;;0.70;99.90;;;;;;5064806;28;20113;-69
2023/12/19 07:24:57;;;;;;;;;;;0.70;99.90;;;;;;5065706;28;19927;-69
2023/12/19 07:27:24;;;;;;;;;;;0.70;99.90;;;;;;5065229;28;19921;-69
2023/12/19 07:29:51;;;;;;;;;;;0.70;99.90;;;;;;5063764;28;19921;-68
2023/12/19 07:32:19;;;;;;;;;;;0.60;99.90;;;;;;5065102;28;19944;-69
2023/12/19 07:34:46;;;;;;;;;;;0.70;99.90;;;;;;5065208;28;20126;-69
2023/12/19 07:37:12;;;;;;;;;;;0.60;99.90;;;;;;5065074;28;19921;-69
2023/12/19 07:39:39;;;;;;;;;;;0.70;99.90;;;;;;5065310;28;20071;-68
2023/12/19 07:42:06;;;;;;;;;;;0.70;99.90;;;;;;5065209;28;20119;-68
2023/12/19 07:44:32;;;;;;;;;;;0.70;99.90;;;;;;5064893;28;19952;-69
2023/12/19 07:46:59;;;;;;;;;;;0.70;99.90;;;;;;5065184;28;19921;-68
2023/12/19 07:49:27;;;;;;;;;;;0.70;99.90;;;;;;5065209;28;19989;-69
2023/12/19 07:51:54;;;;;;;;;;;0.70;99.90;;;;;;5065231;28;19928;-69
2023/12/19 07:54:20;;;;;;;;;;;0.70;99.90;;;;;;5064547;28;19928;-69
2023/12/19 07:56:47;;;;;;;;;;;0.70;99.90;;;;;;5065196;28;19956;-68
2023/12/19 07:59:14;;;;;;;;;;;0.90;99.90;;;;;;5064946;28;19921;-69
2023/12/19 08:01:40;;;;;;;;;;;0.90;99.90;;;;;;5064538;28;19956;-69
2023/12/19 08:04:07;;;;;;;;;;;0.90;99.90;;;;;;5064085;28;19920;-69
2023/12/19 08:06:35;;;;;;;;;;;0.90;99.90;;;;;;5064941;28;19924;-69
2023/12/19 08:09:02;;;;;;;;;;;1.00;99.90;;;;;;5062136;28;19956;-68
2023/12/19 08:11:29;;;;;;;;;;;1.00;99.90;;;;;;5063790;28;19921;-69
2023/12/19 08:13:56;;;;;;;;;;;1.00;99.90;;;;;;5063717;28;19920;-69
2023/12/19 08:16:22;;;;;;;;;;;1.00;99.90;;;;;;5064487;28;20194;-69
2023/12/19 08:18:50;;;;;;;;;;;1.00;99.90;;;;;;5054357;28;19927;-69
2023/12/19 08:21:17;;;;;;;;;;;1.10;99.90;;;;;;5062961;28;19921;-69
2023/12/19 08:23:47;;;;;;;;;;;1.00;99.90;;;;;;5059613;28;19940;-68
2023/12/19 08:26:13;;;;;;;;;;;1.10;99.90;;;;;;5060207;28;19924;-68
2023/12/19 08:28:40;;;;;;;;;;;1.10;99.90;;;;;;5064056;28;19920;-69
2023/12/19 08:31:07;;;;;;;;;;;1.10;99.90;;;;;;5064167;28;19992;-68
2023/12/19 08:33:34;;;;;;;;;;;1.10;99.90;;;;;;5063139;28;20210;-70
2023/12/19 08:36:00;;;;;;;;;;;1.20;99.90;;;;;;5063744;28;19955;-69
2023/12/19 08:38:27;;;;;;;;;;;1.20;99.90;;;;;;5063538;28;20265;-69
2023/12/19 08:40:55;;;;;;;;;;;1.20;99.90;;;;;;5063839;28;19959;-70
2023/12/19 08:43:22;;;;;;;;;;;1.30;99.90;;;;;;5062991;28;19948;-69
2023/12/19 08:45:49;;;;;;;;;;;1.30;99.90;;;;;;5064111;28;19966;-69
2023/12/19 08:48:16;;;;;;;;;;;1.40;99.90;;;;;;5063726;28;20186;-69
2023/12/19 08:50:44;;;;;;;;;;;1.50;99.90;;;;;;5063868;28;19992;-69
2023/12/19 08:53:12;;;;;;;;;;;1.50;99.90;;;;;;5063063;28;19921;-68
2023/12/19 08:55:39;;;;;;;;;;;1.60;99.90;;;;;;5056525;28;19927;-69
2023/12/19 08:58:07;;;;;;;;;;;1.60;99.90;;;;;;5062722;28;20250;-69
2023/12/19 09:00:35;;;;;;;;;;;1.60;99.90;;;;;;5063383;28;20230;-69
2023/12/19 09:03:05;;;;;;;;;;;1.70;99.90;;;;;;5063087;28;19925;-69
2023/12/19 09:05:31;;;;;;;;;;;1.80;99.90;;;;;;5062632;28;19927;-69
2023/12/19 09:07:58;;;;;;;;;;;1.90;99.90;;;;;;5063405;28;20163;-69
2023/12/19 09:10:25;;;;;;;;;;;2.00;99.90;;;;;;5063361;28;19953;-69
2023/12/19 09:12:51;;;;;;;;;;;2.00;99.90;;;;;;5062526;28;20280;-69
2023/12/19 09:15:20;;;;;;;;;;;2.10;99.90;;;;;;5062474;28;19920;-69
2023/12/19 09:17:47;;;;;;;;;;;2.10;99.90;;;;;;5062929;28;19921;-68
2023/12/19 09:20:14;;;;;;;;;;;2.20;99.90;;;;;;5063322;28;19927;-69
2023/12/19 09:22:40;;;;;;;;;;;2.30;99.90;;;;;;5062565;28;19992;-69
2023/12/19 09:25:14;;;;;;;;;;;2.40;99.90;;;;;;5063026;28;19984;-69
2023/12/19 09:27:41;;;;;;;;;;;2.40;99.90;;;;;;5063105;28;19927;-69
2023/12/19 09:30:09;;;;;;;;;;;2.40;99.90;;;;;;5063083;28;19929;-69
2023/12/19 09:32:37;;;;;;;;;;;2.50;99.90;;;;;;5062210;28;20209;-70
2023/12/19 09:35:04;;;;;;;;;;;2.50;99.90;;;;;;5054327;28;19959;-68
2023/12/19 09:37:31;;;;;;;;;;;2.60;99.90;;;;;;5062310;28;20175;-68
2023/12/19 09:39:57;;;;;;;;;;;2.60;99.90;;;;;;5050701;28;19980;-68
2023/12/19 09:42:24;;;;;;;;;;;2.70;99.90;;;;;;5062420;28;20109;-68
2023/12/19 09:44:51;;;;;;;;;;;2.70;99.90;;;;;;5063075;28;19963;-68
2023/12/19 09:47:21;;;;;;;;;;;2.70;99.90;;;;;;5062661;28;19921;-69
2023/12/19 09:49:51;;;;;;;;;;;2.80;99.90;;;;;;5062925;28;19956;-68
2023/12/19 09:52:18;;;;;;;;;;;2.90;99.90;;;;;;5061607;28;19952;-67
2023/12/19 09:54:44;;;;;;;;;;;2.90;99.90;;;;;;5054964;28;19952;-68
2023/12/19 09:57:13;;;;;;;;;;;3.00;99.90;;;;;;5062212;28;20193;-69
2023/12/19 09:59:40;;;;;;;;;;;2.90;99.90;;;;;;5062493;28;19971;-69
2023/12/19 10:02:07;;;;;;;;;;;3.00;99.90;;;;;;5062807;28;19984;-68
2023/12/19 10:04:34;;;;;;;;;;;3.00;99.90;;;;;;5062143;28;19927;-69
2023/12/19 10:07:02;;;;;;;;;;;3.10;99.90;;;;;;5062700;28;19984;-68
2023/12/19 10:09:28;;;;;;;;;;;3.10;99.90;;;;;;5062750;28;19980;-69
2023/12/19 10:12:04;;;;;;;;;;;3.10;99.90;;;;;;5062305;28;20229;-67
2023/12/19 10:14:32;;;;;;;;;;;3.20;99.90;;;;;;5061785;28;19920;-69
2023/12/19 10:16:59;;;;;;;;;;;3.20;99.90;;;;;;5062284;28;20210;-69
2023/12/19 10:19:27;;;;;;;;;;;3.30;99.90;;;;;;5062258;28;19971;-68
2023/12/19 10:22:06;;;;;;;;;;;3.30;99.90;;;;;;5062312;28;20253;-68
2023/12/19 10:24:33;;;;;;;;;;;3.40;99.90;;;;;;5058568;28;19932;-68
2023/12/19 10:27:00;;;;;;;;;;;3.50;99.90;;;;;;5058146;28;19920;-68
2023/12/19 10:29:28;;;;;;;;;;;3.60;99.90;;;;;;5062248;28;19929;-68
2023/12/19 10:31:54;;;;;;;;;;;3.70;99.90;;;;;;5062508;28;19921;-68
2023/12/19 10:34:22;;;;;;;;;;;3.80;99.90;;;;;;5061953;28;19927;-68
2023/12/19 10:36:49;;;;;;;;;;;3.90;99.90;;;;;;5058712;28;19921;-68
2023/12/19 10:39:19;;;;;;;;;;;4.00;99.90;;;;;;5060260;28;19948;-67
2023/12/19 10:41:46;;;;;;;;;;;4.20;99.90;;;;;;5062799;28;19921;-68
2023/12/19 10:44:13;;;;;;;;;;;4.40;99.90;;;;;;5061868;28;20345;-70
2023/12/19 10:46:40;;;;;;;;;;;4.50;99.90;;;;;;5066252;28;20000;-69
2023/12/19 10:49:06;;;;;;;;;;;4.60;99.90;;;;;;5065879;28;19959;-68
2023/12/19 10:51:34;;;;;;;;;;;4.60;99.90;;;;;;5065653;28;19921;-72
2023/12/19 10:54:08;;;;;;;;;;;4.60;99.90;;;;;;5065380;28;19963;-69
2023/12/19 10:56:46;;;;;;;;;;;4.50;99.90;;;;;;5064964;28;20211;-68
2023/12/19 10:59:18;;;;;;;;;;;4.50;99.90;;;;;;5065477;28;19921;-68
2023/12/19 11:01:47;;;;;;;;;;;4.40;99.90;;;;;;5059560;28;19921;-68
2023/12/19 11:04:16;;;;;;;;;;;4.30;99.90;;;;;;5064824;28;19967;-68
2023/12/19 11:06:45;;;;;;;;;;;4.30;99.90;;;;;;5058930;28;19921;-68
2023/12/19 11:09:14;;;;;;;;;;;4.20;99.90;;;;;;5065715;28;19989;-69
2023/12/19 11:11:43;;;;;;;;;;;4.10;99.90;;;;;;5065268;28;20238;-68
2023/12/19 11:14:10;;;;;;;;;;;4.10;99.90;;;;;;5064866;28;19988;-67
2023/12/19 11:16:52;;;;;;;;;;;4.10;99.90;;;;;;5065589;28;19974;-68
2023/12/19 11:19:20;;;;;;;;;;;4.10;99.90;;;;;;5065124;28;20226;-68
2023/12/19 11:21:50;;;;;;;;;;;4.30;99.90;;;;;;5065302;28;20257;-68
2023/12/19 11:24:19;;;;;;;;;;;4.30;99.90;;;;;;5064821;28;19995;-68
2023/12/19 11:26:51;;;;;;;;;;;4.50;99.90;;;;;;5065218;28;20253;-68
2023/12/19 11:29:36;;;;;;;;;;;4.60;99.90;;;;;;5065068;28;20273;-68
2023/12/19 11:32:25;;;;;;;;;;;4.80;99.90;;;;;;5065325;28;19952;-68
2023/12/19 11:34:51;;;;;;;;;;;4.90;99.90;;;;;;5064741;28;19952;-69
2023/12/19 11:37:21;;;;;;;;;;;5.10;99.90;;;;;;5057939;28;19927;-68
2023/12/19 11:39:47;;;;;;;;;;;5.20;99.90;;;;;;5065134;28;19955;-68
2023/12/19 11:42:29;;;;;;;;;;;5.30;99.90;;;;;;5064607;28;19948;-69
2023/12/19 11:44:57;;;;;;;;;;;5.30;99.90;;;;;;5059538;28;19921;-68
2023/12/19 11:47:29;;;;;;;;;;;5.30;99.90;;;;;;5064877;28;20154;-68
2023/12/19 11:49:55;;;;;;;;;;;5.30;99.90;;;;;;5064880;28;19983;-69
2023/12/19 11:52:30;;;;;;;;;;;5.30;99.90;;;;;;5064375;28;20060;-68
2023/12/19 11:54:56;;;;;;;;;;;5.40;99.90;;;;;;5065017;28;19966;-68
2023/12/19 11:57:23;;;;;;;;;;;5.40;99.90;;;;;;5063801;28;20171;-68
2023/12/19 11:59:51;;;;;;;;;;;5.40;99.90;;;;;;5064931;28;19921;-68
2023/12/19 12:02:29;;;;;;;;;;;5.30;99.90;;;;;;5064133;28;19955;-68
2023/12/19 12:05:03;;;;;;;;;;;5.00;99.90;;;;;;5064340;28;19971;-68
2023/12/19 12:07:30;;;;;;;;;;;4.90;99.90;;;;;;5064433;28;20008;-68
2023/12/19 12:10:00;;;;;;;;;;;4.80;99.90;;;;;;5064328;28;20344;-68
2023/12/19 12:12:30;;;;;;;;;;;4.70;99.90;;;;;;5057254;28;19967;-67
2023/12/19 12:15:05;;;;;;;;;;;4.70;99.90;;;;;;5064163;28;20258;-67
2023/12/19 12:17:33;;;;;;;;;;;4.60;99.90;;;;;;5063992;28;19920;-68
2023/12/19 12:20:00;;;;;;;;;;;4.50;99.90;;;;;;5063971;28;19920;-68
2023/12/19 12:22:27;;;;;;;;;;;4.50;99.90;;;;;;5063856;28;19928;-68
2023/12/19 12:24:54;;;;;;;;;;;4.50;99.90;;;;;;5064063;28;19921;-69
2023/12/19 12:27:20;;;;;;;;;;;4.50;99.90;;;;;;5062212;28;19924;-68
2023/12/19 12:29:47;;;;;;;;;;;4.60;99.90;;;;;;5057421;28;19988;-68
2023/12/19 12:32:14;;;;;;;;;;;4.60;99.90;;;;;;5063403;28;20234;-68
2023/12/19 12:34:44;;;;;;;;;;;4.60;99.90;;;;;;5064196;28;19952;-69
2023/12/19 12:37:11;;;;;;;;;;;4.70;99.90;;;;;;5064092;28;19963;-68
2023/12/19 12:39:37;;;;;;;;;;;4.80;99.90;;;;;;5063862;28;19963;-68
2023/12/19 12:42:05;;;;;;;;;;;4.90;99.90;;;;;;5063977;28;19963;-68
2023/12/19 12:44:31;;;;;;;;;;;5.00;99.90;;;;;;5063271;28;19996;-68
2023/12/19 12:46:58;;;;;;;;;;;5.20;99.90;;;;;;5063937;28;19952;-68
2023/12/19 12:49:25;;;;;;;;;;;5.40;99.90;;;;;;5063800;28;19920;-68
2023/12/19 12:51:56;;;;;;;;;;;5.60;99.90;;;;;;5063827;28;19980;-68
2023/12/19 12:54:23;;;;;;;;;;;5.80;99.90;;;;;;5056668;28;20055;-68
2023/12/19 12:56:50;;;;;;;;;;;6.00;99.90;;;;;;5063832;28;19979;-68
2023/12/19 12:59:17;;;;;;;;;;;6.10;99.90;;;;;;5063699;28;19979;-68
2023/12/19 13:01:46;;;;;;;;;;;6.20;99.90;;;;;;5046976;28;19963;-68
2023/12/19 13:04:13;;;;;;;;;;;6.20;99.90;;;;;;5046036;28;19996;-69
2023/12/19 13:06:41;;;;;;;;;;;6.00;99.90;;;;;;5063224;28;19980;-68
2023/12/19 13:09:13;;;;;;;;;;;5.80;99.90;;;;;;5061918;28;19928;-69
2023/12/19 13:11:40;;;;;;;;;;;5.70;99.90;;;;;;5056468;28;20229;-68
2023/12/19 13:14:07;;;;;;;;;;;5.60;99.90;;;;;;5062551;28;19952;-68
2023/12/19 13:16:33;;;;;;;;;;;5.50;99.90;;;;;;5063069;28;19975;-68
2023/12/19 13:19:00;;;;;;;;;;;5.40;99.90;;;;;;5063060;28;19920;-69
2023/12/19 13:21:26;;;;;;;;;;;5.30;99.90;;;;;;5063273;28;19938;-68
2023/12/19 13:23:54;;;;;;;;;;;5.30;99.90;;;;;;5062516;28;20091;-68
2023/12/19 13:26:25;;;;;;;;;;;5.20;99.90;;;;;;5062840;28;19921;-68
2023/12/19 13:28:52;;;;;;;;;;;5.10;99.90;;;;;;5062826;28;20257;-69
2023/12/19 13:31:19;;;;;;;;;;;5.10;99.90;;;;;;5062972;28;19956;-68
2023/12/19 13:33:46;;;;;;;;;;;5.10;99.90;;;;;;5062874;28;19921;-70
2023/12/19 13:36:16;;;;;;;;;;;5.10;99.90;;;;;;5063314;28;19967;-69
2023/12/19 13:38:43;;;;;;;;;;;5.00;99.90;;;;;;5063098;28;19983;-70
2023/12/19 13:41:10;;;;;;;;;;;5.10;99.90;;;;;;5062813;28;19952;-70
2023/12/19 13:43:38;;;;;;;;;;;5.00;99.90;;;;;;5062935;28;19987;-69
2023/12/19 13:46:05;;;;;;;;;;;5.00;99.90;;;;;;5063311;28;19984;-71
2023/12/19 13:48:32;;;;;;;;;;;5.00;99.90;;;;;;5052824;28;19921;-68
2023/12/19 13:50:58;;;;;;;;;;;4.90;99.90;;;;;;5063154;28;20117;-69
2023/12/19 13:53:25;;;;;;;;;;;4.90;99.90;;;;;;5062120;28;20256;-68
2023/12/19 13:55:52;;;;;;;;;;;4.80;99.90;;;;;;5062978;28;19956;-69
2023/12/19 13:58:18;;;;;;;;;;;4.80;99.90;;;;;;5062741;28;20182;-69
2023/12/19 14:00:46;;;;;;;;;;;4.70;99.90;;;;;;5062647;28;19988;-69
2023/12/19 14:03:14;;;;;;;;;;;4.70;99.90;;;;;;5062465;28;19920;-70
2023/12/19 14:05:42;;;;;;;;;;;4.80;99.90;;;;;;5062830;28;19921;-69
2023/12/19 14:08:09;;;;;;;;;;;4.70;99.90;;;;;;5062697;28;19928;-69
2023/12/19 14:10:36;;;;;;;;;;;4.70;99.90;;;;;;5062886;28;19921;-69
2023/12/19 14:13:04;;;;;;;;;;;4.80;99.90;;;;;;5062229;28;19960;-69
2023/12/19 14:15:31;;;;;;;;;;;4.80;99.90;;;;;;5062767;28;19921;-69
2023/12/19 14:17:59;;;;;;;;;;;4.80;99.90;;;;;;5062399;28;20356;-69
2023/12/19 14:20:28;;;;;;;;;;;4.80;99.90;;;;;;5064436;28;20226;-68
2023/12/19 14:22:55;;;;;;;;;;;4.90;99.90;;;;;;5066063;28;19924;-69
2023/12/19 14:25:21;;;;;;;;;;;4.90;99.90;;;;;;5066813;28;19921;-69
2023/12/19 14:27:49;;;;;;;;;;;4.80;99.90;;;;;;5066552;28;19983;-68
2023/12/19 14:30:16;;;;;;;;;;;4.80;99.90;;;;;;5066293;28;19921;-69
2023/12/19 14:32:42;;;;;;;;;;;4.80;99.90;;;;;;5066178;28;19920;-68